ADDS METAR Data INFO
IDs: Format: Raw Decoded Include TAF

Data at: 1848 UTC 17 Oct 2017

KDBQ 171753Z 23016KT 10SM CLR 19/07 A3012 RMK AO2 SLP199 T01940067 10194 20072 58009
KDBQ 171653Z 22016G20KT 10SM CLR 18/07 A3013 RMK AO2 SLP205 T01780067
KDBQ 171553Z 22011KT 10SM CLR 16/07 A3014 RMK AO2 SLP208 T01560067 $
KDBQ 171538Z 19007G17KT 170V230 10SM CLR 14/06 A3015 RMK AO2 T01440061 $
KDBQ 171529Z COR 23014KT 10SM CLR 14/06 A3015 RMK AO2 T01440061 $
KDBQ 171453Z 23013KT 10SM CLR 13/06 A3015 RMK AO2 SLP212 T01280061 52007
KDBQ 171353Z 22011KT 10SM CLR 10/05 A3014 RMK AO2 SLP211 T01000050
KDBQ 171253Z 21009KT 10SM CLR 08/04 A3013 RMK AO2 SLP208 T00780044
KDBQ 171153Z 20011KT 10SM CLR 08/04 A3012 RMK AO2 SLP205 T00780044 10100 20078 50002
KDBQ 171053Z 21012KT 10SM CLR 08/04 A3012 RMK AO2 SLP205 T00830044
KDBQ 170953Z AUTO 21011KT 10SM CLR 08/04 A3012 RMK AO2 SLP202 T00830039
KDBQ 170853Z AUTO 21011KT 10SM CLR 08/04 A3012 RMK AO2 SLP201 T00830039 58004
KDBQ 170753Z AUTO 21011KT 10SM CLR 09/03 A3012 RMK AO2 SLP203 T00940033
KDBQ 170653Z AUTO 21012KT 10SM CLR 10/03 A3013 RMK AO2 SLP204 T01000033
KDBQ 170553Z AUTO 21012KT 10SM CLR 10/03 A3013 RMK AO2 SLP206 T01000033 10106 20083 401670006 56010
KDBQ 170453Z AUTO 22012KT 10SM CLR 10/03 A3014 RMK AO2 SLP207 T01000033
KDBQ 170353Z AUTO 21010KT 10SM CLR 09/03 A3015 RMK AO2 SLP214 T00890033
KDBQ 170253Z AUTO 21010KT 10SM CLR 09/03 A3016 RMK AO2 SLP219 T00890028 58005
KDBQ 170153Z AUTO 19006KT 10SM CLR 09/03 A3017 RMK AO2 SLP223 T00890028
KDBQ 170053Z 19005KT 10SM CLR 09/03 A3017 RMK AO2 SLP224 T00940028
KDBQ 162353Z 18004KT 10SM CLR 11/03 A3018 RMK AO2 SLP225 T01060028 10167 20106 56010
KDBQ 162253Z 20006KT 10SM CLR 14/02 A3018 RMK AO2 SLP227 T01390022
KDBQ 162153Z 25009KT 10SM CLR 16/00 A3019 RMK AO2 SLP228 T01610000
KDBQ 162053Z 24013KT 10SM CLR 17/02 A3021 RMK AO2 SLP234 T01670017 56025
KDBQ 161953Z 25013KT 10SM CLR 16/02 A3022 RMK AO2 SLP239 T01610022
KDBQ 161853Z 25010KT 10SM CLR 16/03 A3025 RMK AO2 SLP250 T01610033
KDBQ 161753Z 26009KT 230V300 10SM CLR 15/03 A3029 RMK AO2 SLP261 T01500028 10150 20006 58010
KDBQ 161653Z 23008KT 8SM CLR 14/03 A3031 RMK AO2 SLP269 T01390028
KDBQ 161553Z 22005KT 10SM CLR 12/04 A3030 RMK AO2 SLP268 T01170044
KDBQ 161453Z 22004KT 10SM CLR 09/06 A3032 RMK AO2 SLP274 T00890056 53010
KDBQ 161353Z 22003KT 10SM CLR 04/03 A3031 RMK AO2 SLP271 T00440033
KDBQ 161253Z 21004KT 10SM CLR 02/01 A3029 RMK AO2 SLP267 T00170006
KDBQ 161153Z 00000KT 10SM CLR 03/01 A3029 RMK AO2 SLP264 T00330011 10050 20022 53010
KDBQ 161053Z 24003KT 10SM CLR 03/01 A3028 RMK AO2 SLP261 T00280011
KDBQ 160953Z AUTO 23007KT 10SM CLR 03/02 A3026 RMK AO2 SLP255 T00330017
KDBQ 160853Z AUTO 22005KT 10SM CLR 02/02 A3025 RMK AO2 SLP253 T00220017 56002
KDBQ 160753Z AUTO 22005KT 10SM CLR 03/02 A3025 RMK AO2 SLP253 T00280017
KDBQ 160653Z AUTO 20005KT 10SM FEW065 04/03 A3026 RMK AO2 SLP252 T00390028